Time;durP1;ratioP1;P1;durP2;ratioP2;P2;SDS_P1;SDS_P2;PMS_P1;PMS_P2;Temp;Humidity;BMP_temperature;BMP_pressure;BME280_temperature;BME280_humidity;BME280_pressure;Samples;Min_cycle;Max_cycle;Signal;HPM_P1;HPM_P2
2022/02/27 00:01:27;;;;;;;5.30;3.83;;;4.80;99.90;;;;;;5014033;28;20200;-70
2022/02/27 00:03:55;;;;;;;7.45;3.42;;;4.80;99.90;;;;;;5014230;28;20225;-70
2022/02/27 00:06:23;;;;;;;5.93;3.83;;;4.80;99.90;;;;;;5013845;28;20204;-71
2022/02/27 00:08:50;;;;;;;8.43;3.67;;;4.80;99.90;;;;;;5014735;28;20316;-73
2022/02/27 00:11:18;;;;;;;7.28;3.40;;;4.70;99.90;;;;;;5013391;28;20274;-71
2022/02/27 00:13:45;;;;;;;4.50;3.10;;;4.70;99.90;;;;;;5013836;28;20221;-72
2022/02/27 00:16:14;;;;;;;11.65;4.30;;;4.70;99.90;;;;;;5013961;28;20617;-73
2022/02/27 00:18:41;;;;;;;4.82;3.00;;;4.60;99.90;;;;;;5014250;28;20201;-72
2022/02/27 00:21:08;;;;;;;6.45;3.72;;;4.60;99.90;;;;;;5014327;28;20197;-70
2022/02/27 00:23:37;;;;;;;3.95;3.50;;;4.60;99.90;;;;;;5004244;28;20244;-72
2022/02/27 00:26:04;;;;;;;7.43;3.55;;;4.70;99.90;;;;;;4984516;28;20320;-69
2022/02/27 00:28:31;;;;;;;9.85;6.13;;;4.60;99.90;;;;;;5001909;28;20225;-68
2022/02/27 00:30:58;;;;;;;7.57;4.97;;;4.60;99.90;;;;;;5000845;28;20248;-71
2022/02/27 00:33:26;;;;;;;8.55;3.45;;;4.60;99.90;;;;;;5013309;28;20229;-68
2022/02/27 00:35:53;;;;;;;9.23;4.22;;;4.60;99.90;;;;;;5017101;28;20205;-71
2022/02/27 00:38:21;;;;;;;5.57;3.85;;;4.60;99.90;;;;;;4999267;28;20201;-71
2022/02/27 00:40:48;;;;;;;5.70;3.22;;;4.60;99.90;;;;;;5007394;28;20216;-72
2022/02/27 00:43:16;;;;;;;8.05;4.20;;;4.50;99.90;;;;;;5004143;28;20272;-70
2022/02/27 00:45:43;;;;;;;12.15;5.68;;;4.50;99.90;;;;;;5008416;28;20208;-73
2022/02/27 00:48:10;;;;;;;13.10;7.30;;;4.50;99.90;;;;;;4995663;28;20253;-71
2022/02/27 00:50:38;;;;;;;12.82;5.63;;;4.50;99.90;;;;;;5007582;28;20209;-71
2022/02/27 00:53:08;;;;;;;12.32;6.75;;;4.50;99.90;;;;;;4998719;28;20221;-71
2022/02/27 00:55:35;;;;;;;9.15;4.55;;;4.50;99.90;;;;;;5006023;28;20197;-74
2022/02/27 00:58:04;;;;;;;5.70;4.35;;;4.40;99.90;;;;;;5001607;28;20209;-72
2022/02/27 01:00:31;;;;;;;5.63;2.85;;;4.30;99.90;;;;;;5005681;28;20213;-69
2022/02/27 01:02:59;;;;;;;5.47;3.17;;;4.40;99.90;;;;;;5002648;28;20241;-72
2022/02/27 01:05:26;;;;;;;6.13;3.60;;;4.30;99.90;;;;;;4994395;28;20214;-71
2022/02/27 01:07:54;;;;;;;4.40;3.05;;;4.40;99.90;;;;;;5004722;28;20214;-72
2022/02/27 01:10:21;;;;;;;7.82;4.07;;;4.40;99.90;;;;;;4998134;28;20256;-71
2022/02/27 01:12:48;;;;;;;6.63;2.95;;;4.40;99.90;;;;;;4996099;28;20580;-73
2022/02/27 01:15:16;;;;;;;5.70;3.50;;;4.30;99.90;;;;;;5003589;28;20540;-72
2022/02/27 01:17:43;;;;;;;10.30;3.40;;;4.20;99.90;;;;;;4998029;28;20626;-73
2022/02/27 01:20:11;;;;;;;6.22;3.83;;;4.20;99.90;;;;;;5000810;28;20263;-73
2022/02/27 01:22:39;;;;;;;6.32;3.75;;;4.20;99.90;;;;;;5002667;28;20286;-72
2022/02/27 01:25:09;;;;;;;3.70;3.10;;;4.20;99.90;;;;;;5004126;28;20223;-69
2022/02/27 01:27:37;;;;;;;6.13;2.88;;;4.30;99.90;;;;;;4993772;28;20222;-75
2022/02/27 01:30:07;;;;;;;6.63;3.15;;;4.30;99.90;;;;;;4998450;28;20197;-72
2022/02/27 01:32:37;;;;;;;7.35;2.85;;;4.30;99.90;;;;;;5000702;28;20236;-72
2022/02/27 01:35:08;;;;;;;5.80;3.13;;;4.20;99.90;;;;;;5006916;28;20205;-71
2022/02/27 01:37:34;;;;;;;5.30;2.95;;;4.10;99.90;;;;;;5009527;28;20201;-73
2022/02/27 01:40:02;;;;;;;5.63;2.88;;;4.10;99.90;;;;;;5005415;28;20632;-74
2022/02/27 01:42:31;;;;;;;7.28;3.00;;;4.00;99.90;;;;;;5008908;28;20232;-70
2022/02/27 01:44:58;;;;;;;5.85;2.90;;;4.00;99.90;;;;;;5011032;28;20209;-71
2022/02/27 01:47:25;;;;;;;7.25;2.42;;;4.00;99.90;;;;;;5003368;28;20255;-70
2022/02/27 01:49:53;;;;;;;5.00;3.10;;;3.90;99.90;;;;;;4999203;28;20216;-73
2022/02/27 01:52:20;;;;;;;7.90;3.55;;;3.90;99.90;;;;;;5001766;28;20221;-69
2022/02/27 01:54:48;;;;;;;5.15;3.70;;;3.90;99.90;;;;;;5007507;28;20212;-74
2022/02/27 01:57:15;;;;;;;6.57;3.70;;;4.00;99.90;;;;;;5016862;28;20528;-70
2022/02/27 01:59:45;;;;;;;4.80;2.95;;;4.00;99.90;;;;;;5016592;28;20223;-73
2022/02/27 02:02:12;;;;;;;5.32;3.13;;;3.90;99.90;;;;;;5015901;28;20587;-72
2022/02/27 02:04:41;;;;;;;5.32;2.75;;;3.90;99.90;;;;;;5016843;28;20199;-71
2022/02/27 02:07:10;;;;;;;3.70;2.70;;;3.90;99.90;;;;;;5016268;28;20216;-72
2022/02/27 02:09:37;;;;;;;4.55;3.05;;;4.00;99.90;;;;;;5015824;28;20294;-71
2022/02/27 02:12:06;;;;;;;8.73;2.47;;;3.90;99.90;;;;;;5015693;28;22353;-73
2022/02/27 02:14:33;;;;;;;3.10;2.28;;;3.90;99.90;;;;;;5016491;28;20601;-74
2022/02/27 02:17:01;;;;;;;3.13;2.72;;;3.90;99.90;;;;;;5016095;28;20630;-72
2022/02/27 02:19:29;;;;;;;4.05;3.35;;;3.90;99.90;;;;;;5015389;28;20204;-71
2022/02/27 02:22:00;;;;;;;8.55;3.92;;;3.90;99.90;;;;;;5010692;28;20659;-72
2022/02/27 02:24:28;;;;;;;2.83;2.42;;;3.90;99.90;;;;;;4997179;28;20275;-69
2022/02/27 02:26:55;;;;;;;5.60;2.30;;;3.90;99.90;;;;;;5009036;28;20619;-72
2022/02/27 02:29:24;;;;;;;5.25;3.80;;;3.80;99.90;;;;;;4996739;28;20240;-71
2022/02/27 02:31:53;;;;;;;6.28;3.13;;;3.90;99.90;;;;;;5002540;28;20543;-69
2022/02/27 02:34:22;;;;;;;3.63;2.45;;;3.90;99.90;;;;;;5003036;28;20287;-70
2022/02/27 02:36:50;;;;;;;5.07;2.67;;;3.80;99.90;;;;;;5007837;28;20205;-70
2022/02/27 02:39:21;;;;;;;4.10;2.45;;;3.80;99.90;;;;;;5004911;28;20248;-71
2022/02/27 02:41:48;;;;;;;5.80;3.13;;;3.80;99.90;;;;;;5004648;28;20201;-73
2022/02/27 02:44:17;;;;;;;4.13;3.00;;;3.80;99.90;;;;;;5005893;28;20251;-71
2022/02/27 02:46:45;;;;;;;4.95;2.72;;;3.70;99.90;;;;;;5002806;28;20216;-73
2022/02/27 02:49:13;;;;;;;6.07;3.20;;;3.60;99.90;;;;;;5000781;28;20228;-72
2022/02/27 02:51:41;;;;;;;4.00;2.40;;;3.60;99.90;;;;;;5000579;28;20697;-69
2022/02/27 02:54:09;;;;;;;2.90;2.47;;;3.60;99.90;;;;;;5009492;28;20375;-73
2022/02/27 02:56:40;;;;;;;10.20;3.92;;;3.50;99.90;;;;;;5003219;28;20206;-69
2022/02/27 02:59:09;;;;;;;5.85;2.88;;;3.50;99.90;;;;;;5001034;28;20262;-71
2022/02/27 03:01:36;;;;;;;5.45;3.17;;;3.40;99.90;;;;;;5002926;28;20204;-70
2022/02/27 03:04:04;;;;;;;8.07;3.53;;;3.40;99.90;;;;;;5010341;28;20271;-70
2022/02/27 03:06:32;;;;;;;5.05;3.05;;;3.50;99.90;;;;;;5069991;22;20577;-79
2022/02/27 03:09:00;;;;;;;5.53;2.78;;;3.40;99.90;;;;;;5055472;28;20263;-79
2022/02/27 03:11:27;;;;;;;3.97;2.80;;;3.40;99.90;;;;;;5058779;28;20230;-79
2022/02/27 03:14:00;;;;;;;5.35;2.63;;;3.40;99.90;;;;;;5051099;28;20248;-80
2022/02/27 03:16:27;;;;;;;7.05;3.20;;;3.40;99.90;;;;;;5064067;28;20212;-79
2022/02/27 03:18:54;;;;;;;3.80;2.58;;;3.40;99.90;;;;;;5061780;28;20290;-80
2022/02/27 03:21:21;;;;;;;3.80;2.65;;;3.40;99.90;;;;;;5051118;28;20585;-79
2022/02/27 03:23:52;;;;;;;4.90;3.35;;;3.40;99.90;;;;;;5046260;28;20276;-80
2022/02/27 03:26:20;;;;;;;5.57;3.25;;;3.40;99.90;;;;;;5046498;28;20234;-80
2022/02/27 03:28:47;;;;;;;5.28;2.95;;;3.30;99.90;;;;;;5046406;28;20250;-79
2022/02/27 03:31:15;;;;;;;4.57;2.80;;;3.30;99.90;;;;;;5037770;28;20219;-79
2022/02/27 03:33:42;;;;;;;5.40;2.85;;;3.30;99.90;;;;;;5029280;28;20197;-79
2022/02/27 03:36:09;;;;;;;7.60;3.28;;;3.20;99.90;;;;;;5039213;28;20209;-79
2022/02/27 03:38:36;;;;;;;4.90;3.88;;;3.20;99.90;;;;;;5039372;28;20212;-79
2022/02/27 03:41:03;;;;;;;4.25;3.20;;;3.20;99.90;;;;;;5039578;28;20178;-79
2022/02/27 03:43:37;;;;;;;6.07;3.13;;;3.10;99.90;;;;;;5039503;28;20189;-80
2022/02/27 03:46:04;;;;;;;3.97;2.65;;;3.00;99.90;;;;;;5063236;28;20234;-80
2022/02/27 03:48:33;;;;;;;7.30;4.10;;;3.00;99.90;;;;;;5071383;28;20225;-80
2022/02/27 03:50:59;;;;;;;3.55;2.47;;;3.00;99.90;;;;;;5069162;28;20251;-80
2022/02/27 03:53:26;;;;;;;6.70;3.40;;;2.90;99.90;;;;;;5071076;28;20227;-81
2022/02/27 03:55:53;;;;;;;8.65;3.03;;;2.90;99.90;;;;;;5070164;28;20220;-80
2022/02/27 03:58:20;;;;;;;6.18;2.80;;;2.90;99.90;;;;;;5070591;28;20192;-80
2022/02/27 04:00:47;;;;;;;9.23;4.35;;;2.90;99.90;;;;;;5071479;28;20200;-80
2022/02/27 04:03:14;;;;;;;5.32;2.90;;;2.90;99.90;;;;;;5062221;28;20202;-81
2022/02/27 04:05:43;;;;;;;8.52;3.65;;;2.90;99.90;;;;;;5066184;28;20291;-80
2022/02/27 04:08:10;;;;;;;6.28;3.65;;;2.90;99.90;;;;;;5056434;28;20263;-80
2022/02/27 04:10:37;;;;;;;6.38;2.97;;;2.90;99.90;;;;;;5055589;28;20231;-80
2022/02/27 04:13:04;;;;;;;5.00;2.90;;;2.80;99.90;;;;;;5047286;28;20216;-80
2022/02/27 04:15:31;;;;;;;6.15;2.53;;;2.90;99.90;;;;;;5058134;28;20246;-80
2022/02/27 04:17:58;;;;;;;4.13;2.85;;;2.80;99.90;;;;;;5052905;28;20211;-79
2022/02/27 04:20:25;;;;;;;5.75;3.85;;;2.80;99.90;;;;;;5055708;28;20233;-79
2022/02/27 04:22:53;;;;;;;3.80;2.95;;;2.70;99.90;;;;;;5058279;28;20253;-79
2022/02/27 04:25:20;;;;;;;6.18;3.33;;;2.70;99.90;;;;;;5056833;28;20246;-80
2022/02/27 04:27:47;;;;;;;4.80;3.15;;;2.70;99.90;;;;;;5060714;28;20273;-81
2022/02/27 04:30:14;;;;;;;5.95;3.75;;;2.70;99.90;;;;;;5066960;28;20231;-80
2022/02/27 04:32:41;;;;;;;15.23;4.65;;;2.90;99.90;;;;;;5066367;28;20220;-80
2022/02/27 04:35:08;;;;;;;6.38;2.67;;;2.60;99.90;;;;;;5062976;28;20264;-80
2022/02/27 04:37:36;;;;;;;4.85;3.00;;;2.60;99.90;;;;;;5058135;28;20203;-80
2022/02/27 04:40:05;;;;;;;3.25;2.95;;;2.60;99.90;;;;;;5054593;28;20200;-78
2022/02/27 04:42:32;;;;;;;4.57;3.38;;;2.60;99.90;;;;;;5056241;28;20199;-78
2022/02/27 04:45:00;;;;;;;4.68;3.03;;;2.60;99.90;;;;;;5061429;28;20210;-79
2022/02/27 04:47:27;;;;;;;8.13;3.28;;;2.50;99.90;;;;;;5044850;28;20235;-81
2022/02/27 04:49:54;;;;;;;6.22;3.75;;;2.50;99.90;;;;;;5044550;28;20224;-81
2022/02/27 04:52:21;;;;;;;6.57;3.60;;;2.50;99.90;;;;;;5042264;28;20279;-79
2022/02/27 04:54:48;;;;;;;6.30;3.22;;;2.40;99.90;;;;;;5046169;28;20215;-79
2022/02/27 04:57:16;;;;;;;6.38;3.13;;;2.50;99.90;;;;;;5044923;28;20712;-79
2022/02/27 04:59:43;;;;;;;6.38;3.35;;;2.40;99.90;;;;;;5042558;28;20232;-79
2022/02/27 05:02:10;;;;;;;5.50;2.85;;;2.40;99.90;;;;;;5053183;28;20207;-80
2022/02/27 05:04:37;;;;;;;7.90;3.38;;;2.40;99.90;;;;;;5039244;28;20218;-80
2022/02/27 05:07:04;;;;;;;7.10;3.60;;;2.30;99.90;;;;;;5044198;28;20287;-79
2022/02/27 05:09:31;;;;;;;7.53;3.55;;;2.30;99.90;;;;;;5055951;28;20235;-80
2022/02/27 05:11:59;;;;;;;6.80;3.20;;;2.50;99.90;;;;;;5046288;28;20271;-80
2022/02/27 05:14:27;;;;;;;6.15;4.30;;;2.30;99.90;;;;;;5054565;28;20230;-81
2022/02/27 05:16:54;;;;;;;6.93;3.40;;;2.30;99.90;;;;;;5046797;28;20235;-79
2022/02/27 05:19:21;;;;;;;4.88;3.35;;;2.40;99.90;;;;;;5057387;28;20220;-80
2022/02/27 05:21:48;;;;;;;7.40;5.47;;;2.30;99.90;;;;;;5053089;28;20656;-81
2022/02/27 05:24:15;;;;;;;7.30;3.60;;;2.30;99.90;;;;;;5050743;28;20219;-80
2022/02/27 05:26:41;;;;;;;10.07;4.72;;;2.30;99.90;;;;;;5059654;28;20247;-80
2022/02/27 05:29:08;;;;;;;10.20;4.18;;;2.30;99.90;;;;;;5048604;28;20251;-80
2022/02/27 05:31:37;;;;;;;5.78;4.45;;;2.30;99.90;;;;;;5055306;28;20227;-80
2022/02/27 05:34:05;;;;;;;6.93;5.05;;;2.20;99.90;;;;;;5062218;28;20223;-80
2022/02/27 05:36:32;;;;;;;7.35;4.78;;;2.30;99.90;;;;;;5053449;28;20220;-80
2022/02/27 05:38:59;;;;;;;9.55;4.85;;;2.20;99.90;;;;;;5057984;28;20227;-80
2022/02/27 05:41:25;;;;;;;14.77;5.90;;;2.10;99.90;;;;;;5049411;28;20220;-80
2022/02/27 05:43:52;;;;;;;9.75;4.80;;;2.10;99.90;;;;;;5052251;28;20232;-80
2022/02/27 05:46:19;;;;;;;8.70;4.78;;;2.10;99.90;;;;;;5067627;28;20234;-80
2022/02/27 05:48:47;;;;;;;7.35;4.20;;;2.10;99.90;;;;;;5060287;28;20272;-81
2022/02/27 05:51:14;;;;;;;9.25;5.15;;;2.10;99.90;;;;;;5059569;28;20207;-80
2022/02/27 05:53:41;;;;;;;10.15;4.57;;;2.10;99.90;;;;;;5059191;28;20264;-81
2022/02/27 05:56:08;;;;;;;7.20;4.15;;;2.10;99.90;;;;;;5058568;28;20318;-80
2022/02/27 05:58:36;;;;;;;9.50;4.22;;;2.20;99.90;;;;;;5059645;28;20649;-81
2022/02/27 06:01:03;;;;;;;7.93;4.50;;;2.10;99.90;;;;;;5055397;28;20196;-80
2022/02/27 06:03:30;;;;;;;13.32;4.68;;;2.10;99.90;;;;;;5055600;28;20234;-80
2022/02/27 06:05:58;;;;;;;6.43;3.95;;;2.30;99.90;;;;;;5054523;28;20295;-79
2022/02/27 06:08:25;;;;;;;9.52;5.03;;;2.20;99.90;;;;;;5056095;28;20289;-80
2022/02/27 06:10:52;;;;;;;17.60;4.68;;;2.10;99.90;;;;;;5056164;28;20307;-80
2022/02/27 06:13:19;;;;;;;5.50;4.45;;;2.10;99.90;;;;;;5054586;28;20197;-80
2022/02/27 06:15:45;;;;;;;10.40;5.20;;;2.20;99.90;;;;;;5056540;28;20219;-79
2022/02/27 06:18:12;;;;;;;8.18;4.75;;;2.10;99.90;;;;;;5050359;28;20272;-79
2022/02/27 06:20:39;;;;;;;8.00;5.60;;;2.10;99.90;;;;;;5052362;28;20200;-79
2022/02/27 06:23:09;;;;;;;14.05;5.45;;;2.10;99.90;;;;;;5056403;28;20235;-80
2022/02/27 06:25:36;;;;;;;19.10;5.85;;;2.00;99.90;;;;;;5071459;28;20215;-79
2022/02/27 06:28:03;;;;;;;11.65;4.85;;;2.00;99.90;;;;;;5048835;28;20260;-80
2022/02/27 06:30:30;;;;;;;10.98;5.93;;;2.00;99.90;;;;;;5059486;28;20299;-80
2022/02/27 06:32:57;;;;;;;10.60;5.43;;;2.00;99.90;;;;;;5061790;28;20232;-79
2022/02/27 06:35:25;;;;;;;10.82;5.10;;;2.10;99.90;;;;;;5058624;28;20228;-81
2022/02/27 06:37:53;;;;;;;10.23;5.25;;;2.10;99.90;;;;;;5063365;28;20207;-79
2022/02/27 06:40:22;;;;;;;6.35;4.47;;;2.10;99.90;;;;;;5049608;28;20196;-79
2022/02/27 06:42:49;;;;;;;6.95;4.75;;;2.10;99.90;;;;;;5055642;28;20211;-80
2022/02/27 06:45:17;;;;;;;9.00;5.00;;;2.20;99.90;;;;;;5048193;28;20220;-80
2022/02/27 06:47:45;;;;;;;14.05;5.20;;;2.20;99.90;;;;;;5054726;28;20664;-80
2022/02/27 06:50:12;;;;;;;7.78;5.30;;;2.30;99.90;;;;;;5052601;28;20308;-78
2022/02/27 06:52:40;;;;;;;14.05;5.57;;;2.30;99.90;;;;;;5057418;28;20219;-78
2022/02/27 06:55:08;;;;;;;14.60;6.82;;;2.40;99.90;;;;;;5052590;28;20306;-80
2022/02/27 06:57:36;;;;;;;9.85;5.30;;;2.40;99.90;;;;;;5049385;28;20209;-79
2022/02/27 07:00:04;;;;;;;8.25;5.00;;;2.50;99.90;;;;;;5048036;28;20220;-79
2022/02/27 07:02:31;;;;;;;8.85;5.25;;;2.50;99.90;;;;;;5058476;28;20200;-78
2022/02/27 07:04:58;;;;;;;9.98;5.30;;;2.50;99.90;;;;;;5063385;28;20665;-82
2022/02/27 07:07:25;;;;;;;17.15;6.45;;;2.70;99.90;;;;;;5053115;28;20287;-81
2022/02/27 07:09:52;;;;;;;9.35;4.95;;;2.70;99.90;;;;;;5054097;28;20216;-80
2022/02/27 07:12:18;;;;;;;12.13;5.70;;;2.90;99.90;;;;;;5058125;28;20227;-79
2022/02/27 07:14:47;;;;;;;10.60;6.38;;;3.10;99.90;;;;;;5051594;28;20228;-79
2022/02/27 07:17:13;;;;;;;11.23;7.10;;;3.60;99.90;;;;;;5054224;28;20219;-81
2022/02/27 07:19:40;;;;;;;6.40;5.28;;;4.20;99.90;;;;;;5061993;28;20675;-79
2022/02/27 07:22:07;;;;;;;8.00;5.07;;;5.10;99.90;;;;;;5064312;28;20259;-80
2022/02/27 07:24:34;;;;;;;8.85;5.15;;;6.30;99.90;;;;;;5060079;28;20198;-81
2022/02/27 07:27:01;;;;;;;9.75;4.28;;;7.40;99.90;;;;;;5054899;28;20224;-81
2022/02/27 07:29:28;;;;;;;10.65;4.97;;;8.50;99.90;;;;;;5055590;28;20262;-80
2022/02/27 07:31:57;;;;;;;14.35;4.50;;;9.20;99.90;;;;;;5059533;28;20185;-81
2022/02/27 07:34:23;;;;;;;11.05;4.20;;;9.90;99.90;;;;;;5065124;28;20655;-82
2022/02/27 07:36:51;;;;;;;6.35;5.05;;;10.60;96.70;;;;;;5059195;28;20227;-82
2022/02/27 07:39:19;;;;;;;12.27;5.60;;;11.20;95.40;;;;;;5060825;28;20214;-80
2022/02/27 07:41:46;;;;;;;10.15;4.30;;;11.50;93.20;;;;;;5056425;28;20203;-81
2022/02/27 07:44:13;;;;;;;9.20;5.40;;;12.00;92.30;;;;;;5045850;28;20238;-82
2022/02/27 07:46:41;;;;;;;10.57;5.25;;;12.50;91.50;;;;;;5043513;28;20216;-84
2022/02/27 07:49:09;;;;;;;12.65;4.60;;;12.90;90.10;;;;;;5045774;28;20208;-83
2022/02/27 07:51:36;;;;;;;10.07;5.63;;;13.30;88.30;;;;;;5043513;28;20200;-83
2022/02/27 07:54:03;;;;;;;8.35;5.95;;;13.50;87.90;;;;;;5045864;28;20200;-84
2022/02/27 07:56:30;;;;;;;7.55;4.38;;;13.70;86.90;;;;;;5049130;28;20228;-82
2022/02/27 07:58:58;;;;;;;7.50;4.43;;;14.20;84.40;;;;;;5048968;28;20617;-84
2022/02/27 08:01:25;;;;;;;7.00;4.63;;;14.50;83.40;;;;;;5050286;28;20213;-83
2022/02/27 08:03:52;;;;;;;6.23;4.37;;;14.80;82.60;;;;;;5042495;28;20202;-84
2022/02/27 08:06:20;;;;;;;9.45;5.72;;;14.70;81.00;;;;;;5050580;28;20477;-84
2022/02/27 08:08:47;;;;;;;8.00;5.23;;;14.40;80.90;;;;;;5055746;28;20232;-84
2022/02/27 08:11:14;;;;;;;7.40;4.37;;;14.60;81.30;;;;;;5051291;28;20511;-83
2022/02/27 08:13:41;;;;;;;7.07;5.20;;;14.90;81.00;;;;;;5047852;28;20456;-85
2022/02/27 08:16:08;;;;;;;16.07;6.13;;;15.20;80.60;;;;;;5049033;28;20550;-82
2022/02/27 08:18:36;;;;;;;8.87;5.27;;;15.20;79.70;;;;;;5054680;28;20860;-83
2022/02/27 08:21:04;;;;;;;8.10;5.30;;;15.30;79.00;;;;;;5037155;28;20505;-81
2022/02/27 08:23:32;;;;;;;11.23;5.70;;;15.30;79.10;;;;;;5042504;28;20470;-84
2022/02/27 08:26:00;;;;;;;9.20;5.00;;;15.10;79.50;;;;;;5053430;28;20527;-82
2022/02/27 08:28:28;;;;;;;13.90;5.80;;;15.10;80.40;;;;;;5045994;28;20446;-81
2022/02/27 08:30:55;;;;;;;8.83;5.77;;;15.50;78.70;;;;;;5051480;28;20478;-80
2022/02/27 08:33:23;;;;;;;9.77;6.47;;;15.40;78.50;;;;;;5052009;28;20483;-82
2022/02/27 08:35:50;;;;;;;14.03;6.43;;;16.00;77.90;;;;;;5054213;28;20479;-82
2022/02/27 08:38:17;;;;;;;14.53;7.13;;;15.90;76.20;;;;;;5058029;28;20511;-82
2022/02/27 08:40:46;;;;;;;9.40;5.10;;;15.80;77.30;;;;;;5055701;28;20438;-83
2022/02/27 08:43:13;;;;;;;12.60;6.60;;;15.90;76.60;;;;;;5057076;28;20456;-84
2022/02/27 08:45:42;;;;;;;8.80;5.13;;;15.70;77.20;;;;;;5053941;28;20710;-84
2022/02/27 08:48:53;;;;;;;8.70;5.50;;;16.20;75.50;;;;;;5053645;28;20458;-85
2022/02/27 08:51:22;;;;;;;8.90;6.43;;;16.10;76.40;;;;;;5057191;28;20497;-84
2022/02/27 08:53:50;;;;;;;12.27;6.80;;;16.50;75.50;;;;;;5057497;28;20447;-85
2022/02/27 09:06:40;;;;;;;7.83;5.60;;;16.90;73.60;;;;;;5458697;22;20858;-75
2022/02/27 09:09:07;;;;;;;8.83;5.30;;;17.00;73.30;;;;;;5043687;28;20821;-75
2022/02/27 09:11:34;;;;;;;10.47;6.33;;;17.10;73.70;;;;;;5045243;28;20504;-73
2022/02/27 09:14:01;;;;;;;9.50;5.20;;;16.70;73.80;;;;;;5047144;28;20556;-73
2022/02/27 09:16:28;;;;;;;10.10;5.87;;;16.60;74.60;;;;;;5050923;28;20479;-74
2022/02/27 09:18:55;;;;;;;8.50;5.07;;;16.90;74.60;;;;;;5046468;28;20482;-74
2022/02/27 09:21:22;;;;;;;10.27;6.40;;;17.20;74.00;;;;;;5053396;28;20481;-73
2022/02/27 09:23:52;;;;;;;7.97;5.67;;;17.90;73.00;;;;;;5044631;28;20517;-74
2022/02/27 09:26:19;;;;;;;12.20;8.03;;;18.00;72.10;;;;;;5048739;28;20795;-75
2022/02/27 09:28:46;;;;;;;8.40;5.10;;;18.00;72.20;;;;;;5045287;28;20451;-72
2022/02/27 09:31:13;;;;;;;10.13;5.43;;;17.40;72.40;;;;;;5039054;28;20499;-76
2022/02/27 09:33:40;;;;;;;9.90;5.40;;;17.00;73.50;;;;;;5036870;28;20964;-72
2022/02/27 09:36:10;;;;;;;13.17;6.23;;;17.10;74.30;;;;;;5037904;28;20499;-76
2022/02/27 09:38:37;;;;;;;9.93;5.90;;;17.20;73.50;;;;;;5044742;28;20447;-73
2022/02/27 09:41:06;;;;;;;10.90;6.80;;;16.70;73.90;;;;;;5036870;28;20450;-73
2022/02/27 09:43:34;;;;;;;9.87;5.97;;;16.60;74.90;;;;;;5045582;28;20485;-75
2022/02/27 09:46:01;;;;;;;11.20;7.10;;;16.80;75.20;;;;;;5044891;28;20446;-75
2022/02/27 09:48:29;;;;;;;16.77;5.50;;;16.60;74.80;;;;;;5045500;28;20461;-72
2022/02/27 09:50:55;;;;;;;6.67;5.40;;;16.30;75.50;;;;;;5028386;28;20510;-75
2022/02/27 09:53:22;;;;;;;13.67;6.37;;;16.10;76.40;;;;;;5032069;28;20557;-73
2022/02/27 09:55:49;;;;;;;9.73;6.50;;;16.10;76.80;;;;;;5042842;28;20490;-71
2022/02/27 09:58:17;;;;;;;10.90;6.50;;;16.70;75.70;;;;;;5048319;28;20478;-72
2022/02/27 10:00:44;;;;;;;8.80;5.80;;;16.30;76.00;;;;;;5041412;28;20479;-69
2022/02/27 10:03:13;;;;;;;10.17;5.77;;;16.10;76.90;;;;;;5047747;28;20959;-72
2022/02/27 10:05:42;;;;;;;8.03;7.20;;;16.40;75.90;;;;;;5049571;28;20454;-69
2022/02/27 10:08:09;;;;;;;9.07;5.83;;;15.90;75.70;;;;;;5045382;28;20486;-71
2022/02/27 10:10:37;;;;;;;11.07;6.50;;;16.10;77.30;;;;;;5045274;28;20496;-74
2022/02/27 10:13:06;;;;;;;10.63;5.10;;;16.30;76.60;;;;;;5046177;28;20567;-71
2022/02/27 10:15:35;;;;;;;9.77;7.23;;;16.00;76.90;;;;;;5048203;28;20557;-73
2022/02/27 10:18:14;;;;;;;13.82;6.55;;;15.30;77.70;;;;;;5045764;28;20440;-72
2022/02/27 10:20:41;;;;;;;12.55;6.68;;;14.40;80.50;;;;;;5048868;28;20289;-70
2022/02/27 10:23:09;;;;;;;12.02;6.47;;;14.20;81.70;;;;;;5013735;28;20335;-69
2022/02/27 10:25:39;;;;;;;8.13;5.70;;;14.00;83.00;;;;;;5016873;28;20212;-71
2022/02/27 10:28:07;;;;;;;13.98;5.55;;;13.70;84.30;;;;;;5017589;28;20208;-70
2022/02/27 10:30:37;;;;;;;11.23;6.70;;;13.80;84.90;;;;;;5016344;28;20892;-68
2022/02/27 10:33:06;;;;;;;8.55;6.43;;;13.90;84.60;;;;;;5017330;28;20294;-70
2022/02/27 10:35:38;;;;;;;10.40;6.70;;;13.50;84.80;;;;;;5016233;28;20294;-70
2022/02/27 10:38:05;;;;;;;13.43;6.43;;;13.00;87.40;;;;;;5017276;28;20288;-68
2022/02/27 10:40:33;;;;;;;8.93;5.93;;;12.50;88.70;;;;;;5014586;28;20203;-70
2022/02/27 10:43:01;;;;;;;10.43;5.28;;;12.60;90.10;;;;;;5013275;28;20227;-69
2022/02/27 10:45:28;;;;;;;12.18;6.47;;;12.60;90.30;;;;;;5015499;28;20241;-71
2022/02/27 10:48:13;;;;;;;13.88;7.18;;;12.70;90.70;;;;;;5016488;28;20665;-73
2022/02/27 10:50:40;;;;;;;12.30;6.80;;;12.60;90.50;;;;;;5014419;28;20228;-71
2022/02/27 10:53:07;;;;;;;10.25;6.97;;;12.30;90.90;;;;;;5016604;28;20230;-73
2022/02/27 10:55:35;;;;;;;9.88;5.97;;;12.00;91.40;;;;;;5017210;28;20949;-72
2022/02/27 10:58:03;;;;;;;10.02;6.25;;;11.10;92.00;;;;;;5017550;28;20209;-70
2022/02/27 11:00:32;;;;;;;12.90;6.22;;;11.30;93.20;;;;;;5015994;28;20318;-76
2022/02/27 11:03:02;;;;;;;13.38;6.90;;;11.40;94.00;;;;;;5015569;28;20234;-67
2022/02/27 11:05:33;;;;;;;14.85;7.00;;;11.50;93.70;;;;;;5016218;28;20206;-70
2022/02/27 11:08:01;;;;;;;9.60;6.97;;;11.30;92.80;;;;;;5015496;28;20229;-71
2022/02/27 11:10:30;;;;;;;13.63;7.20;;;11.00;93.50;;;;;;5015483;28;20330;-74
2022/02/27 11:13:00;;;;;;;8.95;7.30;;;10.90;94.00;;;;;;5023162;28;20251;-73
2022/02/27 11:15:28;;;;;;;19.20;7.35;;;10.40;93.90;;;;;;5021597;28;21477;-72
2022/02/27 11:17:55;;;;;;;11.95;7.28;;;10.30;94.20;;;;;;5018728;28;20342;-71
2022/02/27 11:20:23;;;;;;;15.52;7.93;;;10.00;94.70;;;;;;5015815;28;20314;-72
2022/02/27 11:22:54;;;;;;;15.13;9.05;;;9.90;95.60;;;;;;5016181;28;20331;-71
2022/02/27 11:25:23;;;;;;;16.17;7.55;;;9.80;96.40;;;;;;5017011;28;20585;-72
2022/02/27 11:27:52;;;;;;;11.70;7.53;;;9.80;96.40;;;;;;5016345;28;20214;-75
2022/02/27 11:30:21;;;;;;;12.32;7.30;;;9.50;96.80;;;;;;5015304;28;20218;-73
2022/02/27 11:32:51;;;;;;;11.77;7.22;;;9.50;96.90;;;;;;5016860;28;20246;-73
2022/02/27 11:35:34;;;;;;;8.32;6.13;;;9.60;96.30;;;;;;5016829;28;20307;-75
2022/02/27 11:38:03;;;;;;;13.85;6.28;;;9.40;96.00;;;;;;5016507;28;20763;-71
2022/02/27 11:40:41;;;;;;;11.23;6.18;;;9.50;95.20;;;;;;5016471;28;20856;-77
2022/02/27 11:43:08;;;;;;;12.45;6.60;;;9.50;94.80;;;;;;5040512;28;20361;-72
2022/02/27 11:45:57;;;;;;;13.20;7.63;;;9.50;94.70;;;;;;5047909;28;20248;-72
2022/02/27 11:48:52;;;;;;;11.27;6.20;;;9.60;95.10;;;;;;5024912;28;20307;-72
2022/02/27 11:51:55;;;;;;;18.90;7.18;;;9.60;95.10;;;;;;5018922;28;20250;-74
2022/02/27 11:54:25;;;;;;;12.95;6.65;;;9.70;94.90;;;;;;5014676;28;20210;-70
2022/02/27 11:57:07;;;;;;;9.15;6.60;;;9.60;94.30;;;;;;5022018;28;20291;-74
2022/02/27 12:00:01;;;;;;;7.85;6.00;;;9.60;94.40;;;;;;5024370;28;20667;-72
2022/02/27 12:02:42;;;;;;;10.57;6.55;;;9.40;94.90;;;;;;5022279;28;20715;-72
2022/02/27 12:05:11;;;;;;;9.90;5.85;;;9.50;95.20;;;;;;5022286;28;20200;-74
2022/02/27 12:08:07;;;;;;;15.13;7.78;;;9.50;94.40;;;;;;5020271;28;20295;-72
2022/02/27 12:10:38;;;;;;;13.57;5.82;;;9.50;94.90;;;;;;5003238;28;20267;-73
2022/02/27 12:13:19;;;;;;;10.98;6.65;;;9.50;94.70;;;;;;5021482;28;20258;-71
2022/02/27 12:15:46;;;;;;;11.93;5.68;;;9.50;93.70;;;;;;5026775;28;20214;-73
2022/02/27 12:18:23;;;;;;;10.48;6.00;;;9.50;93.50;;;;;;5025221;28;20503;-74
2022/02/27 12:20:53;;;;;;;11.90;6.90;;;9.50;93.30;;;;;;5024000;28;20888;-71
2022/02/27 12:23:43;;;;;;;10.00;7.82;;;9.50;93.20;;;;;;5037510;28;20474;-72
2022/02/27 12:26:33;;;;;;;10.48;5.93;;;9.60;93.60;;;;;;5021251;28;20241;-69
2022/02/27 12:29:01;;;;;;;10.43;6.03;;;9.60;93.90;;;;;;5016632;28;21035;-69
2022/02/27 12:31:30;;;;;;;11.93;5.60;;;9.60;93.60;;;;;;5027013;28;20211;-71
2022/02/27 12:33:59;;;;;;;8.93;5.50;;;9.40;93.60;;;;;;5031837;28;20226;-70
2022/02/27 12:36:28;;;;;;;10.30;6.35;;;9.40;93.50;;;;;;5042613;28;20203;-70
2022/02/27 12:38:59;;;;;;;9.93;5.45;;;9.40;93.00;;;;;;5040890;28;20208;-70
2022/02/27 12:41:30;;;;;;;11.07;5.93;;;9.30;92.80;;;;;;5041849;28;20793;-69
2022/02/27 12:43:57;;;;;;;6.57;4.70;;;9.30;92.80;;;;;;5031150;28;20224;-70
2022/02/27 12:46:26;;;;;;;9.68;5.80;;;9.20;92.80;;;;;;5027383;28;20200;-69
2022/02/27 12:51:39;;;;;;;10.88;6.15;;;9.30;92.90;;;;;;5046661;28;20207;-70
2022/02/27 12:54:19;;;;;;;10.35;5.97;;;9.20;92.90;;;;;;5046206;28;20215;-67
2022/02/27 12:56:56;;;;;;;11.40;5.80;;;9.30;92.90;;;;;;5044696;28;20212;-66
2022/02/27 12:59:26;;;;;;;11.30;6.22;;;9.30;92.30;;;;;;5046972;28;20305;-72
2022/02/27 13:01:55;;;;;;;9.20;5.32;;;9.30;92.30;;;;;;5031012;28;20311;-67
2022/02/27 13:04:23;;;;;;;9.57;5.60;;;9.30;92.80;;;;;;5034287;28;20208;-71
2022/02/27 13:06:59;;;;;;;7.38;4.43;;;9.40;93.30;;;;;;5041233;28;20213;-71
2022/02/27 13:09:27;;;;;;;7.70;4.90;;;9.40;91.90;;;;;;5033162;28;20294;-70
2022/02/27 13:11:56;;;;;;;7.60;5.38;;;9.30;91.80;;;;;;5038803;28;20197;-70